Wetter

Ora Tempo Temperatura Umidità Vento Precipitazioni
09:00 Klarer Himmel 27.3° 48% 3.57 km/h 0 mm
12:00 Klarer Himmel 28.6° 53% 6.02 km/h 0 mm
15:00 Klarer Himmel 29.4° 51% 6.66 km/h 0 mm
18:00 Klarer Himmel 27.6° 53% 4.81 km/h 0 mm
21:00 Klarer Himmel 24.8° 55% 3.78 km/h 0 mm
Ora Tempo Temperatura Umidità Vento Precipitazioni
00:00 Klarer Himmel 23.9° 48% 2.76 km/h 0 mm
03:00 Klarer Himmel 23.2° 49% 3.4 km/h 0 mm
06:00 Klarer Himmel 25.9° 43% 1.89 km/h 0 mm
09:00 Klarer Himmel 28.5° 47% 4.2 km/h 0 mm
12:00 Klarer Himmel 29.8° 50% 6.83 km/h 0 mm
15:00 Klarer Himmel 29.8° 48% 4.94 km/h 0 mm
18:00 Klarer Himmel 27.4° 60% 4.09 km/h 0 mm
21:00 Klarer Himmel 24.9° 62% 2.71 km/h 0 mm
Ora Tempo Temperatura Umidità Vento Precipitazioni
00:00 Klarer Himmel 24.2° 56% 3.22 km/h 0 mm
03:00 Klarer Himmel 23.8° 53% 2.2 km/h 0 mm
06:00 Klarer Himmel 26.2° 50% 1.37 km/h 0 mm
09:00 Klarer Himmel 28.4° 51% 3.32 km/h 0 mm
12:00 Klarer Himmel 29.2° 55% 4.41 km/h 0 mm
15:00 Klarer Himmel 29.3° 56% 5.01 km/h 0 mm
18:00 Klarer Himmel 27.1° 70% 3.98 km/h 0 mm
21:00 Klarer Himmel 24.1° 82% 3.52 km/h 0 mm
Ora Tempo Temperatura Umidità Vento Precipitazioni
00:00 Klarer Himmel 23.7° 72% 2.26 km/h 0 mm
03:00 Bedeckt 23.6° 65% 2.21 km/h 0 mm
06:00 Mäßig bewölkt 26.0° 60% 2.24 km/h 0 mm
09:00 Klarer Himmel 28.9° 54% 3.28 km/h 0 mm
12:00 Klarer Himmel 29.7° 60% 6.21 km/h 0 mm
15:00 Klarer Himmel 30.0° 54% 6.2 km/h 0 mm
18:00 Ein paar Wolken 27.7° 63% 4.42 km/h 0 mm
21:00 Klarer Himmel 25.3° 69% 3.63 km/h 0 mm
Ora Tempo Temperatura Umidità Vento Precipitazioni
00:00 Klarer Himmel 23.9° 69% 2.85 km/h 0 mm
03:00 Klarer Himmel 23.2° 61% 2.79 km/h 0 mm
06:00 Klarer Himmel 25.7° 51% 2.6 km/h 0 mm
09:00 Ein paar Wolken 28.4° 53% 3.03 km/h 0 mm
12:00 Ein paar Wolken 29.1° 57% 6.38 km/h 0 mm
15:00 Klarer Himmel 28.7° 60% 7.86 km/h 0 mm
18:00 Ein paar Wolken 28.8° 57% 4.29 km/h 0 mm
21:00 Mäßig bewölkt 24.0° 70% 2.92 km/h 0 mm
Ora Tempo Temperatura Umidità Vento Precipitazioni
00:00 Ein paar Wolken 22.3° 68% 2.84 km/h 0 mm
03:00 Klarer Himmel 21.9° 69% 4.62 km/h 0 mm
06:00 Klarer Himmel 25.4° 51% 5.98 km/h 0 mm
Sonntag 03 Juli
Temp. max: 29.6°
Temp. min: 24.8°
Ora Tempo Temperatura Umidità Vento Precipitazioni
09:00 Klarer Himmel 27.3° 48% 3.57 km/h 0 mm
12:00 Klarer Himmel 28.6° 53% 6.02 km/h 0 mm
15:00 Klarer Himmel 29.4° 51% 6.66 km/h 0 mm
18:00 Klarer Himmel 27.6° 53% 4.81 km/h 0 mm
21:00 Klarer Himmel 24.8° 55% 3.78 km/h 0 mm
Montag 04 Juli
Temp. max: 29.8°
Temp. min: 23.2°
Ora Tempo Temperatura Umidità Vento Precipitazioni
00:00 Klarer Himmel 23.9° 48% 2.76 km/h 0 mm
03:00 Klarer Himmel 23.2° 49% 3.4 km/h 0 mm
06:00 Klarer Himmel 25.9° 43% 1.89 km/h 0 mm
09:00 Klarer Himmel 28.5° 47% 4.2 km/h 0 mm
12:00 Klarer Himmel 29.8° 50% 6.83 km/h 0 mm
15:00 Klarer Himmel 29.8° 48% 4.94 km/h 0 mm
18:00 Klarer Himmel 27.4° 60% 4.09 km/h 0 mm
21:00 Klarer Himmel 24.9° 62% 2.71 km/h 0 mm
Dienstag 05 Juli
Temp. max: 29.3°
Temp. min: 23.8°
Ora Tempo Temperatura Umidità Vento Precipitazioni
00:00 Klarer Himmel 24.2° 56% 3.22 km/h 0 mm
03:00 Klarer Himmel 23.8° 53% 2.2 km/h 0 mm
06:00 Klarer Himmel 26.2° 50% 1.37 km/h 0 mm
09:00 Klarer Himmel 28.4° 51% 3.32 km/h 0 mm
12:00 Klarer Himmel 29.2° 55% 4.41 km/h 0 mm
15:00 Klarer Himmel 29.3° 56% 5.01 km/h 0 mm
18:00 Klarer Himmel 27.1° 70% 3.98 km/h 0 mm
21:00 Klarer Himmel 24.1° 82% 3.52 km/h 0 mm
Mittwoch 06 Juli
Temp. max: 30.0°
Temp. min: 23.6°
Ora Tempo Temperatura Umidità Vento Precipitazioni
00:00 Klarer Himmel 23.7° 72% 2.26 km/h 0 mm
03:00 Bedeckt 23.6° 65% 2.21 km/h 0 mm
06:00 Mäßig bewölkt 26.0° 60% 2.24 km/h 0 mm
09:00 Klarer Himmel 28.9° 54% 3.28 km/h 0 mm
12:00 Klarer Himmel 29.7° 60% 6.21 km/h 0 mm
15:00 Klarer Himmel 30.0° 54% 6.2 km/h 0 mm
18:00 Ein paar Wolken 27.7° 63% 4.42 km/h 0 mm
21:00 Klarer Himmel 25.3° 69% 3.63 km/h 0 mm
Donnerstag 07 Juli
Temp. max: 29.1°
Temp. min: 23.2°
Ora Tempo Temperatura Umidità Vento Precipitazioni
00:00 Klarer Himmel 23.9° 69% 2.85 km/h 0 mm
03:00 Klarer Himmel 23.2° 61% 2.79 km/h 0 mm
06:00 Klarer Himmel 25.7° 51% 2.6 km/h 0 mm
09:00 Ein paar Wolken 28.4° 53% 3.03 km/h 0 mm
12:00 Ein paar Wolken 29.1° 57% 6.38 km/h 0 mm
15:00 Klarer Himmel 28.7° 60% 7.86 km/h 0 mm
18:00 Ein paar Wolken 28.8° 57% 4.29 km/h 0 mm
21:00 Mäßig bewölkt 24.0° 70% 2.92 km/h 0 mm
Freitag 08 Juli
Temp. max: 25.4°
Temp. min: 21.9°
Ora Tempo Temperatura Umidità Vento Precipitazioni
00:00 Ein paar Wolken 22.3° 68% 2.84 km/h 0 mm
03:00 Klarer Himmel 21.9° 69% 4.62 km/h 0 mm
06:00 Klarer Himmel 25.4° 51% 5.98 km/h 0 mm

Live Cam

VUOI RICEVERE PIÚ INFORMAZIONI SUI NOSTRI SERVIZI?

Usa la form di contatti sul sito o contattaci telefonicamente